EICL weather

Clonbullogue Aerodrome
Clonbullogue, County Offaly, Ireland

Public forecast

Using degrees Celsius for public forecast. Weather courtesy of forecast.io.

METAR (pilot weather report)

Closest report is Casement Air Base, 24.3 nm (45.0 km) E. Retrieved 2019/06/20 13:30 UTC (0 seconds ago):

EIME 201330Z 23011KT 9999 VCSH FEW020 SCT035 BKN070 15/07 Q1011

TAF (pilot weather forecast)

Closest forecast is Dublin Airport, 32.3 nm (59.7 km) ENE. Retrieved 2019/06/20 12:09 UTC (56 minutes ago):

TAF EIDW 201100Z 2012/2112 26012KT 9999 FEW015 SCT020 TEMPO 2012/2020 SHRA SCT018CB TEMPO 2018/2022 VRB03KT BECMG 2021/2023 29006KT BECMG 2101/2103 26008KT PROB30 TEMPO 2102/2106 5000 BR BKN015